createdAt,value
2019-06-01T00:00:20.420Z,552.70
2019-06-01T00:00:56.037Z,559.60
2019-06-01T00:01:31.422Z,560.60
2019-06-01T00:02:06.637Z,556.90
2019-06-01T00:02:44.191Z,565.10
2019-06-01T00:03:17.342Z,566.70
2019-06-01T00:03:52.654Z,563.80
2019-06-01T00:04:27.985Z,550.00
2019-06-01T00:05:03.490Z,554.30
2019-06-01T00:05:38.698Z,564.10
2019-06-01T00:06:14.232Z,570.40
2019-06-01T00:06:49.525Z,583.60
2019-06-01T00:07:24.773Z,564.10
2019-06-01T00:07:59.962Z,562.00
2019-06-01T00:08:35.580Z,569.60
2019-06-01T00:09:11.197Z,573.50
2019-06-01T00:09:47.257Z,581.40
2019-06-01T00:10:22.023Z,586.60
2019-06-01T00:10:57.354Z,564.40
2019-06-01T00:11:32.749Z,568.40
2019-06-01T00:12:08.987Z,569.50
2019-06-01T00:12:45.298Z,556.40
2019-06-01T00:13:20.108Z,564.00
2019-06-01T00:13:55.497Z,565.70
2019-06-01T00:14:30.939Z,562.40
2019-06-01T00:15:06.254Z,553.60
2019-06-01T00:15:41.936Z,566.00
2019-06-01T00:16:17.161Z,554.00
2019-06-01T00:16:52.658Z,544.80
2019-06-01T00:17:27.953Z,556.70
2019-06-01T00:18:03.351Z,550.60
2019-06-01T00:18:39.751Z,557.80
2019-06-01T00:19:13.871Z,552.60
2019-06-01T00:19:50.339Z,563.70
2019-06-01T00:20:24.713Z,571.60
2019-06-01T00:21:00.129Z,583.60
2019-06-01T00:21:35.628Z,570.70
2019-06-01T00:22:11.052Z,555.20
2019-06-01T00:22:47.410Z,560.70
2019-06-01T00:23:21.647Z,560.80
2019-06-01T00:23:57.140Z,574.30
2019-06-01T00:24:32.586Z,570.00
2019-06-01T00:25:07.769Z,573.20
2019-06-01T00:25:43.082Z,572.90
2019-06-01T00:26:18.467Z,577.00
2019-06-01T00:26:53.495Z,559.30
2019-06-01T00:27:28.685Z,562.40
2019-06-01T00:28:03.807Z,548.90
2019-06-01T00:28:39.386Z,555.20
2019-06-01T00:29:14.822Z,544.30
2019-06-01T00:29:50.133Z,544.00
2019-06-01T00:30:27.325Z,553.20
2019-06-01T00:31:01.138Z,555.90
2019-06-01T00:31:36.358Z,541.30
2019-06-01T00:32:11.756Z,553.60
2019-06-01T00:32:47.314Z,563.40
2019-06-01T00:33:22.573Z,574.20
2019-06-01T00:33:58.303Z,563.40
2019-06-01T00:34:33.711Z,547.20
2019-06-01T00:35:09.155Z,551.60
2019-06-01T00:35:45.316Z,566.70
2019-06-01T00:36:19.663Z,554.10
2019-06-01T00:36:54.965Z,556.90
2019-06-01T00:37:30.282Z,555.30
2019-06-01T00:38:05.559Z,554.30
2019-06-01T00:38:41.593Z,564.00
2019-06-01T00:39:16.190Z,561.80
2019-06-01T00:39:51.993Z,550.60
2019-06-01T00:40:26.736Z,550.40
2019-06-01T00:41:02.133Z,568.90
2019-06-01T00:41:37.323Z,575.10
2019-06-01T00:42:12.879Z,574.20
2019-06-01T00:42:48.556Z,566.40
2019-06-01T00:43:23.772Z,554.30
2019-06-01T00:43:59.053Z,561.10
2019-06-01T00:44:34.497Z,568.00
2019-06-01T00:45:09.977Z,567.40
2019-06-01T00:45:46.459Z,557.40
2019-06-01T00:46:20.697Z,550.00
2019-06-01T00:46:56.116Z,559.70
2019-06-01T00:47:31.313Z,557.90
2019-06-01T00:48:06.820Z,554.50
2019-06-01T00:48:42.131Z,563.90
2019-06-01T00:49:17.545Z,577.80
2019-06-01T00:49:53.094Z,568.90
2019-06-01T00:50:28.165Z,562.80
2019-06-01T00:51:03.466Z,565.30
2019-06-01T00:51:38.788Z,567.20
2019-06-01T00:52:14.190Z,582.30
2019-06-01T00:52:49.729Z,561.70
2019-06-01T00:53:25.082Z,565.40
2019-06-01T00:54:00.411Z,567.20
2019-06-01T00:54:35.719Z,583.00
2019-06-01T00:55:11.157Z,584.80
2019-06-01T00:55:47.320Z,559.90
2019-06-01T00:56:21.871Z,562.40
2019-06-01T00:56:57.176Z,559.60
2019-06-01T00:57:32.477Z,566.70
2019-06-01T00:58:07.794Z,562.80
2019-06-01T00:58:43.619Z,559.90
2019-06-01T00:59:18.490Z,564.30
2019-06-01T00:59:54.952Z,573.50
2019-06-01T01:00:42.788Z,574.50
2019-06-01T01:01:04.312Z,582.70
2019-06-01T01:01:39.739Z,575.50
2019-06-01T01:02:15.347Z,558.70
2019-06-01T01:02:50.653Z,561.90
2019-06-01T01:03:26.058Z,572.60
2019-06-01T01:04:01.156Z,591.10
2019-06-01T01:04:36.506Z,583.10
2019-06-01T01:05:11.922Z,585.90
2019-06-01T01:05:48.390Z,581.60
2019-06-01T01:06:22.736Z,578.30
2019-06-01T01:06:58.316Z,585.50
2019-06-01T01:07:33.842Z,588.60
2019-06-01T01:08:09.363Z,577.20
2019-06-01T01:08:44.927Z,558.00
2019-06-01T01:09:20.097Z,563.80
2019-06-01T01:09:55.373Z,573.10
2019-06-01T01:10:30.691Z,580.30
2019-06-01T01:11:05.982Z,583.20
2019-06-01T01:11:41.319Z,582.90
2019-06-01T01:12:17.218Z,569.00
2019-06-01T01:12:53.160Z,577.00
2019-06-01T01:13:27.520Z,582.70
2019-06-01T01:14:03.030Z,571.20
2019-06-01T01:14:38.341Z,580.30
2019-06-01T01:15:13.768Z,572.20
2019-06-01T01:15:49.310Z,574.80
2019-06-01T01:16:24.373Z,582.00
2019-06-01T01:16:59.851Z,588.50
2019-06-01T01:17:35.274Z,571.90
2019-06-01T01:18:10.470Z,569.80
2019-06-01T01:18:46.079Z,561.00
2019-06-01T01:19:21.182Z,549.20
2019-06-01T01:19:56.509Z,568.10
2019-06-01T01:20:31.796Z,580.50
2019-06-01T01:21:07.421Z,559.90
2019-06-01T01:21:42.716Z,568.00
2019-06-01T01:22:18.333Z,574.10
2019-06-01T01:22:54.300Z,575.60
2019-06-01T01:23:29.019Z,582.20
2019-06-01T01:24:04.211Z,581.60
2019-06-01T01:24:39.968Z,568.50
2019-06-01T01:25:15.738Z,569.80
2019-06-01T01:25:50.964Z,585.50
2019-06-01T01:26:26.256Z,580.50
2019-06-01T01:27:01.579Z,581.10
2019-06-01T01:27:37.254Z,584.70
2019-06-01T01:28:13.065Z,575.00
2019-06-01T01:28:48.796Z,565.60
2019-06-01T01:29:23.681Z,557.30
2019-06-01T01:29:58.975Z,567.70
2019-06-01T01:30:34.351Z,572.80
2019-06-01T01:31:13.692Z,564.50
2019-06-01T01:31:44.602Z,573.70
2019-06-01T01:32:19.991Z,566.80
2019-06-01T01:32:55.823Z,565.20
2019-06-01T01:33:30.322Z,570.60
2019-06-01T01:34:05.750Z,581.20
2019-06-01T01:34:41.367Z,575.80
2019-06-01T01:35:16.694Z,570.20
2019-06-01T01:35:52.620Z,575.30
2019-06-01T01:36:27.523Z,575.70
2019-06-01T01:37:02.699Z,568.80
2019-06-01T01:37:37.916Z,552.10
2019-06-01T01:38:13.339Z,571.20
2019-06-01T01:38:50.340Z,582.40
2019-06-01T01:39:24.190Z,576.30
2019-06-01T01:39:59.789Z,567.60
2019-06-01T01:40:35.204Z,566.40
2019-06-01T01:41:10.390Z,560.50
2019-06-01T01:41:45.822Z,570.70
2019-06-01T01:42:21.209Z,568.50
2019-06-01T01:42:56.835Z,561.90
2019-06-01T01:43:32.043Z,564.30
2019-06-01T01:44:07.456Z,562.80
2019-06-01T01:44:42.875Z,578.70
2019-06-01T01:45:18.094Z,584.50
2019-06-01T01:45:54.721Z,582.50
2019-06-01T01:46:28.610Z,564.20
2019-06-01T01:47:03.895Z,570.90
2019-06-01T01:47:39.133Z,569.20
2019-06-01T01:48:14.530Z,571.40
2019-06-01T01:48:49.954Z,579.70
2019-06-01T01:49:25.093Z,571.90
2019-06-01T01:50:00.208Z,560.20
2019-06-01T01:50:35.404Z,556.30
2019-06-01T01:51:10.623Z,579.60
2019-06-01T01:51:45.821Z,573.50
2019-06-01T01:52:21.361Z,573.10
2019-06-01T01:52:57.285Z,576.20
2019-06-01T01:53:32.202Z,585.70
2019-06-01T01:54:07.513Z,581.80
2019-06-01T01:54:42.563Z,582.80
2019-06-01T01:55:18.061Z,565.50
2019-06-01T01:55:55.047Z,558.00
2019-06-01T01:56:28.993Z,566.40
2019-06-01T01:57:07.050Z,562.50
2019-06-01T01:57:39.611Z,575.10
2019-06-01T01:58:14.942Z,571.00
2019-06-01T01:58:50.449Z,573.00
2019-06-01T01:59:25.749Z,580.40
2019-06-01T02:00:01.815Z,583.60
2019-06-01T02:00:36.931Z,575.80
2019-06-01T02:01:22.422Z,574.20
2019-06-01T02:01:47.462Z,574.80
2019-06-01T02:02:22.570Z,571.80
2019-06-01T02:02:57.964Z,591.10
2019-06-01T02:03:33.083Z,601.90
2019-06-01T02:04:08.407Z,582.80
2019-06-01T02:04:43.834Z,557.90
2019-06-01T02:05:19.155Z,561.20
2019-06-01T02:05:54.931Z,563.60
2019-06-01T02:06:29.767Z,571.10
2019-06-01T02:07:04.869Z,568.60
2019-06-01T02:07:40.194Z,577.10
2019-06-01T02:08:15.899Z,569.30
2019-06-01T02:08:51.220Z,569.10
2019-06-01T02:09:26.340Z,576.30
2019-06-01T02:10:01.949Z,569.30
2019-06-01T02:10:36.761Z,569.40
2019-06-01T02:11:11.988Z,571.40
2019-06-01T02:11:47.577Z,588.60
2019-06-01T02:12:23.231Z,586.90
2019-06-01T02:12:59.601Z,571.90
2019-06-01T02:13:33.867Z,573.30
2019-06-01T02:14:09.160Z,562.80
2019-06-01T02:14:44.517Z,557.60
2019-06-01T02:15:19.917Z,589.80
2019-06-01T02:15:56.154Z,575.00
2019-06-01T02:16:30.740Z,582.10
2019-06-01T02:17:06.161Z,570.00
2019-06-01T02:17:41.760Z,568.50
2019-06-01T02:18:17.301Z,568.60
2019-06-01T02:18:53.873Z,561.10
2019-06-01T02:19:28.134Z,573.00
2019-06-01T02:20:03.639Z,580.30
2019-06-01T02:20:38.870Z,573.50
2019-06-01T02:21:14.178Z,579.70
2019-06-01T02:21:49.670Z,570.10
2019-06-01T02:22:24.994Z,564.30
2019-06-01T02:23:00.975Z,579.60
2019-06-01T02:23:36.141Z,574.00
2019-06-01T02:24:11.332Z,576.90
2019-06-01T02:24:46.679Z,579.40
2019-06-01T02:25:22.266Z,581.50
2019-06-01T02:25:58.885Z,579.00
2019-06-01T02:26:33.388Z,577.40
2019-06-01T02:27:08.625Z,582.00
2019-06-01T02:27:44.027Z,581.40
2019-06-01T02:28:19.243Z,576.60
2019-06-01T02:28:55.299Z,583.10
2019-06-01T02:29:29.398Z,594.30
2019-06-01T02:30:05.567Z,578.90
2019-06-01T02:30:40.238Z,575.10
2019-06-01T02:31:15.524Z,576.50
2019-06-01T02:31:50.766Z,591.80
2019-06-01T02:32:26.050Z,600.40
2019-06-01T02:33:02.412Z,583.10
2019-06-01T02:33:36.586Z,582.80
2019-06-01T02:34:11.874Z,596.00
2019-06-01T02:34:47.301Z,595.80
2019-06-01T02:35:22.821Z,595.50
2019-06-01T02:35:58.161Z,562.40
2019-06-01T02:36:33.444Z,572.90
2019-06-01T02:37:08.957Z,569.30
2019-06-01T02:37:44.186Z,572.60
2019-06-01T02:38:19.580Z,584.00
2019-06-01T02:38:56.409Z,576.00
2019-06-01T02:39:29.921Z,572.30
2019-06-01T02:40:05.652Z,570.30
2019-06-01T02:40:40.848Z,582.70
2019-06-01T02:41:16.380Z,590.70
2019-06-01T02:41:51.879Z,574.10
2019-06-01T02:42:27.000Z,570.10
2019-06-01T02:43:03.680Z,575.90
2019-06-01T02:43:37.628Z,582.20
2019-06-01T02:44:12.817Z,597.70
2019-06-01T02:44:47.982Z,564.90
2019-06-01T02:45:23.176Z,567.30
2019-06-01T02:45:58.218Z,573.40
2019-06-01T02:46:35.530Z,572.10
2019-06-01T02:47:08.833Z,585.10
2019-06-01T02:47:44.126Z,579.40
2019-06-01T02:48:19.442Z,582.80
2019-06-01T02:48:55.482Z,589.20
2019-06-01T02:49:29.812Z,572.80
2019-06-01T02:50:06.368Z,562.20
2019-06-01T02:50:40.631Z,561.40
2019-06-01T02:51:15.729Z,581.20
2019-06-01T02:51:51.048Z,583.10
2019-06-01T02:52:26.251Z,586.90
2019-06-01T02:53:01.699Z,579.40
2019-06-01T02:53:36.908Z,584.40
2019-06-01T02:54:12.336Z,599.80
2019-06-01T02:54:47.844Z,585.80
2019-06-01T02:55:23.176Z,589.80
2019-06-01T02:55:58.470Z,593.60
2019-06-01T02:56:33.797Z,603.30
2019-06-01T02:57:09.118Z,587.30
2019-06-01T02:57:44.335Z,586.70
2019-06-01T02:58:19.568Z,580.20
2019-06-01T02:58:56.025Z,563.30
2019-06-01T02:59:30.188Z,566.00
2019-06-01T03:00:06.629Z,589.20
2019-06-01T03:00:40.723Z,587.90
2019-06-01T03:01:16.456Z,582.60
2019-06-01T03:01:57.236Z,565.80
2019-06-01T03:02:27.488Z,560.80
2019-06-01T03:03:02.989Z,581.60
2019-06-01T03:03:38.230Z,587.00
2019-06-01T03:04:13.528Z,584.70
2019-06-01T03:04:49.064Z,585.20
2019-06-01T03:05:24.449Z,573.10
2019-06-01T03:05:59.872Z,572.90
2019-06-01T03:06:35.352Z,577.10
2019-06-01T03:07:10.771Z,589.70
2019-06-01T03:07:46.458Z,595.70
2019-06-01T03:08:22.084Z,597.80
2019-06-01T03:08:57.671Z,583.80
2019-06-01T03:09:32.818Z,587.90
2019-06-01T03:10:08.979Z,584.70
2019-06-01T03:10:43.651Z,579.00
2019-06-01T03:11:18.940Z,594.20
2019-06-01T03:11:54.664Z,589.60
2019-06-01T03:12:29.947Z,598.40
2019-06-01T03:13:06.155Z,580.40
2019-06-01T03:13:40.782Z,573.40
2019-06-01T03:14:16.312Z,581.00
2019-06-01T03:14:51.829Z,609.20
2019-06-01T03:15:27.245Z,582.80
2019-06-01T03:16:03.287Z,586.50
2019-06-01T03:16:40.094Z,589.00
2019-06-01T03:17:12.875Z,596.10
2019-06-01T03:17:48.086Z,598.00
2019-06-01T03:18:23.279Z,596.10
2019-06-01T03:18:59.591Z,581.20
2019-06-01T03:19:34.042Z,558.20
2019-06-01T03:20:09.365Z,549.30
2019-06-01T03:20:44.677Z,564.00
2019-06-01T03:21:19.997Z,546.10
2019-06-01T03:21:55.572Z,545.50
2019-06-01T03:22:30.800Z,541.10
2019-06-01T03:23:05.992Z,546.40
2019-06-01T03:23:41.320Z,549.00
2019-06-01T03:24:16.722Z,557.00
2019-06-01T03:24:52.075Z,545.20
2019-06-01T03:25:27.672Z,548.60
2019-06-01T03:26:04.198Z,546.50
2019-06-01T03:26:38.500Z,549.10
2019-06-01T03:27:13.816Z,558.80
2019-06-01T03:27:49.546Z,557.50
2019-06-01T03:28:24.981Z,552.90
2019-06-01T03:29:00.490Z,526.20
2019-06-01T03:29:36.097Z,525.50
2019-06-01T03:30:12.940Z,549.20
2019-06-01T03:30:46.619Z,576.20
2019-06-01T03:31:22.023Z,575.50
2019-06-01T03:32:17.641Z,573.60
2019-06-01T03:32:36.720Z,567.80
2019-06-01T03:33:10.347Z,550.10
2019-06-01T03:33:43.470Z,553.70
2019-06-01T03:34:19.230Z,553.70
2019-06-01T03:34:54.621Z,563.00
2019-06-01T03:35:30.040Z,550.70
2019-06-01T03:36:05.218Z,542.80
2019-06-01T03:36:40.664Z,546.80
2019-06-01T03:37:15.854Z,564.00
2019-06-01T03:37:51.504Z,554.90
2019-06-01T03:38:26.802Z,557.30
2019-06-01T03:39:02.327Z,558.70
2019-06-01T03:39:37.674Z,534.10
2019-06-01T03:40:23.139Z,539.50
2019-06-01T03:40:48.089Z,543.30
2019-06-01T03:41:23.702Z,550.00
2019-06-01T03:41:59.201Z,556.80
2019-06-01T03:42:34.921Z,538.70
2019-06-01T03:43:11.315Z,524.40
2019-06-01T03:43:45.939Z,537.50
2019-06-01T03:44:21.385Z,553.50
2019-06-01T03:44:56.581Z,560.00
2019-06-01T03:45:32.002Z,542.10
2019-06-01T03:46:08.666Z,556.80
2019-06-01T03:46:42.921Z,557.70
2019-06-01T03:47:18.312Z,556.70
2019-06-01T03:47:53.850Z,544.40
2019-06-01T03:48:29.247Z,550.20
2019-06-01T03:49:05.655Z,547.90
2019-06-01T03:49:40.228Z,538.30
2019-06-01T03:50:15.418Z,531.50
2019-06-01T03:50:51.020Z,541.70
2019-06-01T03:51:26.653Z,555.20
2019-06-01T03:52:02.685Z,546.80
2019-06-01T03:52:37.183Z,539.50
2019-06-01T03:53:12.635Z,532.20
2019-06-01T03:53:48.231Z,527.90
2019-06-01T03:54:23.783Z,536.80
2019-06-01T03:54:59.383Z,530.50
2019-06-01T03:55:35.018Z,540.90
2019-06-01T03:56:11.098Z,554.90
2019-06-01T03:56:45.926Z,551.60
2019-06-01T03:57:21.139Z,522.10
2019-06-01T03:57:56.465Z,525.60
2019-06-01T03:58:31.762Z,538.50
2019-06-01T03:59:07.276Z,536.10
2019-06-01T03:59:42.203Z,549.50
2019-06-01T04:00:17.740Z,537.30
2019-06-01T04:00:52.957Z,527.40
2019-06-01T04:01:28.568Z,522.70
2019-06-01T04:02:05.057Z,532.20
2019-06-01T04:02:39.307Z,549.30
2019-06-01T04:03:14.627Z,549.40
2019-06-01T04:03:50.058Z,538.50
2019-06-01T04:04:25.473Z,532.20
2019-06-01T04:05:01.173Z,540.00
2019-06-01T04:05:36.078Z,552.20
2019-06-01T04:06:11.597Z,548.80
2019-06-01T04:06:47.086Z,546.70
2019-06-01T04:07:22.214Z,531.10
2019-06-01T04:07:57.610Z,523.00
2019-06-01T04:08:32.935Z,546.80
2019-06-01T04:09:08.246Z,554.30
2019-06-01T04:09:43.492Z,549.70
2019-06-01T04:10:18.681Z,546.00
2019-06-01T04:10:54.014Z,536.90
2019-06-01T04:11:29.202Z,544.90
2019-06-01T04:12:05.460Z,544.40
2019-06-01T04:12:40.043Z,546.40
2019-06-01T04:13:15.363Z,553.10
2019-06-01T04:13:50.652Z,548.60
2019-06-01T04:14:26.103Z,539.90
2019-06-01T04:15:08.487Z,531.90
2019-06-01T04:15:36.819Z,546.80
2019-06-01T04:16:12.223Z,524.00
2019-06-01T04:16:47.752Z,520.10
2019-06-01T04:17:23.254Z,545.90
2019-06-01T04:17:58.485Z,554.90
2019-06-01T04:18:33.894Z,545.80
2019-06-01T04:19:09.932Z,531.70
2019-06-01T04:19:44.639Z,533.10
2019-06-01T04:20:19.976Z,533.90
2019-06-01T04:20:55.060Z,536.50
2019-06-01T04:21:30.485Z,543.80
2019-06-01T04:22:05.880Z,546.20
2019-06-01T04:22:40.933Z,551.60
2019-06-01T04:23:16.228Z,543.50
2019-06-01T04:23:51.656Z,549.40
2019-06-01T04:24:26.983Z,555.20
2019-06-01T04:25:02.400Z,544.30
2019-06-01T04:25:37.814Z,531.00
2019-06-01T04:26:13.251Z,537.80
2019-06-01T04:26:48.639Z,553.70
2019-06-01T04:27:23.982Z,555.80
2019-06-01T04:27:59.069Z,533.60
2019-06-01T04:28:34.288Z,515.00
2019-06-01T04:29:10.322Z,522.30
2019-06-01T04:29:44.963Z,541.50
2019-06-01T04:30:20.459Z,548.20
2019-06-01T04:30:56.137Z,528.10
2019-06-01T04:31:31.237Z,531.00
2019-06-01T04:32:06.564Z,529.70
2019-06-01T04:32:49.699Z,523.40
2019-06-01T04:33:17.010Z,525.80
2019-06-01T04:33:52.498Z,516.20
2019-06-01T04:34:27.713Z,516.60
2019-06-01T04:35:03.488Z,528.00
2019-06-01T04:35:38.573Z,538.10
2019-06-01T04:36:13.885Z,556.00
2019-06-01T04:36:49.507Z,541.10
2019-06-01T04:37:24.797Z,521.50
2019-06-01T04:38:00.028Z,510.80
2019-06-01T04:38:35.518Z,520.60
2019-06-01T04:39:11.684Z,539.80
2019-06-01T04:39:46.244Z,535.10
2019-06-01T04:40:21.592Z,527.90
2019-06-01T04:40:57.007Z,520.50
2019-06-01T04:41:32.212Z,526.50
2019-06-01T04:42:07.706Z,531.10
2019-06-01T04:42:43.488Z,526.90
2019-06-01T04:43:18.775Z,517.60
2019-06-01T04:43:54.013Z,516.80
2019-06-01T04:44:29.407Z,528.50
2019-06-01T04:45:06.662Z,525.90
2019-06-01T04:45:40.069Z,529.00
2019-06-01T04:46:15.598Z,522.90
2019-06-01T04:46:51.206Z,508.50
2019-06-01T04:47:26.530Z,502.80
2019-06-01T04:48:02.049Z,506.20
2019-06-01T04:48:37.255Z,515.60
2019-06-01T04:49:13.372Z,521.20
2019-06-01T04:49:48.190Z,494.30
2019-06-01T04:50:23.585Z,495.00
2019-06-01T04:50:58.932Z,464.50
2019-06-01T04:51:34.324Z,461.00
2019-06-01T04:52:11.786Z,479.20
2019-06-01T04:52:45.259Z,475.50
2019-06-01T04:53:20.788Z,460.20
2019-06-01T04:53:56.280Z,463.30
2019-06-01T04:54:31.713Z,458.70
2019-06-01T04:55:07.262Z,455.40
2019-06-01T04:55:42.416Z,463.10
2019-06-01T04:56:18.156Z,478.10
2019-06-01T04:56:53.473Z,469.90
2019-06-01T04:57:29.087Z,458.20
2019-06-01T04:58:04.630Z,455.00
2019-06-01T04:58:39.795Z,448.60
2019-06-01T04:59:15.293Z,443.90
2019-06-01T04:59:50.301Z,456.50
2019-06-01T05:00:27.966Z,453.50
2019-06-01T05:01:01.354Z,431.30
2019-06-01T05:01:36.874Z,442.10
2019-06-01T05:02:13.069Z,443.80
2019-06-01T05:02:47.503Z,453.90
2019-06-01T05:03:22.893Z,454.00
2019-06-01T05:03:58.435Z,436.90
2019-06-01T05:04:33.728Z,440.50
2019-06-01T05:05:09.294Z,461.70
2019-06-01T05:05:44.553Z,465.50
2019-06-01T05:06:19.918Z,454.70
2019-06-01T05:06:55.528Z,443.00
2019-06-01T05:07:30.868Z,440.90
2019-06-01T05:08:07.038Z,426.30
2019-06-01T05:08:41.517Z,430.20
2019-06-01T05:09:16.700Z,441.50
2019-06-01T05:09:52.031Z,433.50
2019-06-01T05:10:27.332Z,427.80
2019-06-01T05:11:05.259Z,435.10
2019-06-01T05:11:38.186Z,441.20
2019-06-01T05:12:13.618Z,444.10
2019-06-01T05:12:48.648Z,424.50
2019-06-01T05:13:24.150Z,421.20
2019-06-01T05:13:59.551Z,434.50
2019-06-01T05:14:34.868Z,424.50
2019-06-01T05:15:10.077Z,420.50
2019-06-01T05:15:45.587Z,415.50
2019-06-01T05:16:20.825Z,411.70
2019-06-01T05:16:56.139Z,416.60
2019-06-01T05:17:31.641Z,410.70
2019-06-01T05:18:07.853Z,414.90
2019-06-01T05:18:42.070Z,404.50
2019-06-01T05:19:17.288Z,399.60
2019-06-01T05:19:52.783Z,405.30
2019-06-01T05:20:28.206Z,405.10
2019-06-01T05:21:03.413Z,409.10
2019-06-01T05:21:38.690Z,409.40
2019-06-01T05:22:14.621Z,418.30
2019-06-01T05:22:49.429Z,419.20
2019-06-01T05:23:24.923Z,404.60
2019-06-01T05:24:00.258Z,394.20
2019-06-01T05:24:35.849Z,402.70
2019-06-01T05:25:12.207Z,403.10
2019-06-01T05:25:46.482Z,394.90
2019-06-01T05:26:21.812Z,394.50
2019-06-01T05:26:57.047Z,403.70
2019-06-01T05:27:32.370Z,404.80
2019-06-01T05:28:09.020Z,412.80
2019-06-01T05:28:42.992Z,410.00
2019-06-01T05:29:18.398Z,395.90
2019-06-01T05:29:53.738Z,392.10
2019-06-01T05:30:29.130Z,402.30
2019-06-01T05:31:04.457Z,400.20
2019-06-01T05:31:39.783Z,397.10
2019-06-01T05:32:16.664Z,395.20
2019-06-01T05:32:50.969Z,395.20
2019-06-01T05:33:36.903Z,394.50
2019-06-01T05:34:01.620Z,406.70
2019-06-01T05:34:36.950Z,400.60
2019-06-01T05:35:12.239Z,395.40
2019-06-01T05:35:47.568Z,398.90
2019-06-01T05:36:22.663Z,402.00
2019-06-01T05:36:58.115Z,411.90
2019-06-01T05:37:33.705Z,406.90
2019-06-01T05:38:10.011Z,399.80
2019-06-01T05:38:44.552Z,400.30
2019-06-01T05:39:19.775Z,407.30
2019-06-01T05:39:55.580Z,418.90
2019-06-01T05:40:30.905Z,406.90
2019-06-01T05:41:06.620Z,412.10
2019-06-01T05:41:41.931Z,411.30
2019-06-01T05:42:18.887Z,412.10
2019-06-01T05:42:52.986Z,416.20
2019-06-01T05:43:28.169Z,413.90
2019-06-01T05:44:03.422Z,402.70
2019-06-01T05:44:38.810Z,403.60
2019-06-01T05:45:15.051Z,406.50
2019-06-01T05:45:49.224Z,402.30
2019-06-01T05:46:24.444Z,400.00
2019-06-01T05:46:59.605Z,406.60
2019-06-01T05:47:34.885Z,405.20
2019-06-01T05:48:13.001Z,407.20
2019-06-01T05:48:45.823Z,402.40
2019-06-01T05:49:22.689Z,409.90
2019-06-01T05:49:56.641Z,406.70
2019-06-01T05:50:31.930Z,403.90
2019-06-01T05:51:07.369Z,405.80
2019-06-01T05:51:42.563Z,400.90
2019-06-01T05:52:18.799Z,414.40
2019-06-01T05:52:53.506Z,425.50
2019-06-01T05:53:28.852Z,417.20
2019-06-01T05:54:04.554Z,405.30
2019-06-01T05:54:40.089Z,412.20
2019-06-01T05:55:16.658Z,418.90
2019-06-01T05:55:51.104Z,425.00
2019-06-01T05:56:26.392Z,426.40
2019-06-01T05:57:01.927Z,417.80
2019-06-01T05:57:37.167Z,424.80
2019-06-01T05:58:13.002Z,436.40
2019-06-01T05:58:47.861Z,440.00
2019-06-01T05:59:23.302Z,433.20
2019-06-01T05:59:58.612Z,424.80
2019-06-01T06:00:34.238Z,422.20
2019-06-01T06:01:10.357Z,421.20
2019-06-01T06:01:44.977Z,422.80
2019-06-01T06:02:20.184Z,429.90
2019-06-01T06:02:55.727Z,416.90
2019-06-01T06:03:39.935Z,425.80
2019-06-01T06:04:06.670Z,422.50
2019-06-01T06:04:42.089Z,430.10
2019-06-01T06:05:17.330Z,433.10
2019-06-01T06:05:52.716Z,445.60
2019-06-01T06:06:27.841Z,457.60
2019-06-01T06:07:02.940Z,463.50
2019-06-01T06:07:38.363Z,455.80
2019-06-01T06:08:14.462Z,448.80
2019-06-01T06:08:49.191Z,451.30
2019-06-01T06:09:24.726Z,454.50
2019-06-01T06:09:59.910Z,451.00
2019-06-01T06:10:35.250Z,448.40
2019-06-01T06:11:10.821Z,454.90
2019-06-01T06:11:45.868Z,459.10
2019-06-01T06:12:21.586Z,469.80
2019-06-01T06:12:56.908Z,485.70
2019-06-01T06:13:32.305Z,500.10
2019-06-01T06:14:07.657Z,499.80
2019-06-01T06:14:42.875Z,507.50
2019-06-01T06:15:19.633Z,510.00
2019-06-01T06:15:53.335Z,494.60
2019-06-01T06:16:28.657Z,495.90
2019-06-01T06:17:04.055Z,501.80
2019-06-01T06:17:39.888Z,505.30
2019-06-01T06:18:15.708Z,519.60
2019-06-01T06:18:50.533Z,527.40
2019-06-01T06:19:26.164Z,537.60
2019-06-01T06:20:01.393Z,541.30
2019-06-01T06:20:36.694Z,541.70
2019-06-01T06:21:12.027Z,549.50
2019-06-01T06:21:47.434Z,559.10
2019-06-01T06:22:22.877Z,568.40
2019-06-01T06:22:58.183Z,578.30
2019-06-01T06:23:33.411Z,572.20
2019-06-01T06:24:08.915Z,569.20
2019-06-01T06:24:44.159Z,569.00
2019-06-01T06:25:19.261Z,576.00
2019-06-01T06:25:54.406Z,578.90
2019-06-01T06:26:29.705Z,582.20
2019-06-01T06:27:04.934Z,584.80
2019-06-01T06:27:40.068Z,578.50
2019-06-01T06:28:16.446Z,579.30
2019-06-01T06:28:50.819Z,584.10
2019-06-01T06:29:26.354Z,587.30
2019-06-01T06:30:01.666Z,586.00
2019-06-01T06:30:37.200Z,579.60
2019-06-01T06:31:12.939Z,572.70
2019-06-01T06:31:47.938Z,565.10
2019-06-01T06:32:23.433Z,582.40
2019-06-01T06:32:58.289Z,593.70
2019-06-01T06:33:36.689Z,594.20
2019-06-01T06:34:09.148Z,586.00
2019-06-01T06:34:44.770Z,575.00
2019-06-01T06:35:20.212Z,537.40
2019-06-01T06:35:55.706Z,523.40
2019-06-01T06:36:31.250Z,522.90
2019-06-01T06:37:06.250Z,514.90
2019-06-01T06:37:42.394Z,502.90
2019-06-01T06:38:17.781Z,516.50
2019-06-01T06:38:52.740Z,548.20
2019-06-01T06:39:28.048Z,545.80
2019-06-01T06:40:03.500Z,538.30
2019-06-01T06:40:38.710Z,563.10
2019-06-01T06:41:14.441Z,575.70
2019-06-01T06:41:49.854Z,581.80
2019-06-01T06:42:25.287Z,579.50
2019-06-01T06:43:00.617Z,571.00
2019-06-01T06:43:35.977Z,583.70
2019-06-01T06:44:11.443Z,594.30
2019-06-01T06:44:46.886Z,583.80
2019-06-01T06:45:22.848Z,587.60
2019-06-01T06:45:57.913Z,589.50
2019-06-01T06:46:33.416Z,586.80
2019-06-01T06:47:08.963Z,591.30
2019-06-01T06:47:44.296Z,587.90
2019-06-01T06:48:19.653Z,585.20
2019-06-01T06:48:54.879Z,585.30
2019-06-01T06:49:30.201Z,590.90
2019-06-01T06:50:05.415Z,586.30
2019-06-01T06:50:40.778Z,582.20
2019-06-01T06:51:17.254Z,573.30
2019-06-01T06:51:51.625Z,574.30
2019-06-01T06:52:26.835Z,581.50
2019-06-01T06:53:02.059Z,565.00
2019-06-01T06:53:37.173Z,557.30
2019-06-01T06:54:14.559Z,556.10
2019-06-01T06:54:48.314Z,553.80
2019-06-01T06:55:24.015Z,536.00
2019-06-01T06:55:58.785Z,531.70
2019-06-01T06:56:34.424Z,542.80
2019-06-01T06:57:09.730Z,549.10
2019-06-01T06:57:45.174Z,549.00
2019-06-01T06:58:21.030Z,544.90
2019-06-01T06:58:56.167Z,543.40
2019-06-01T06:59:31.424Z,542.50
2019-06-01T07:00:06.576Z,544.50
2019-06-01T07:00:41.781Z,539.10
2019-06-01T07:01:17.069Z,533.20
2019-06-01T07:01:52.443Z,541.80
2019-06-01T07:02:28.265Z,538.40
2019-06-01T07:03:03.673Z,528.90
2019-06-01T07:03:39.130Z,518.60
2019-06-01T07:04:14.531Z,507.60
2019-06-01T07:04:49.762Z,507.70
2019-06-01T07:05:25.528Z,513.60
2019-06-01T07:06:00.287Z,515.30
2019-06-01T07:06:35.607Z,509.20
2019-06-01T07:07:10.736Z,504.70
2019-06-01T07:07:46.034Z,505.10
2019-06-01T07:08:21.826Z,500.40
2019-06-01T07:08:57.040Z,505.40
2019-06-01T07:09:32.230Z,512.10
2019-06-01T07:10:07.655Z,508.30
2019-06-01T07:10:42.778Z,507.00
2019-06-01T07:11:19.087Z,507.70
2019-06-01T07:11:53.627Z,504.20
2019-06-01T07:12:29.050Z,515.10
2019-06-01T07:13:04.291Z,524.70
2019-06-01T07:13:39.801Z,518.50
2019-06-01T07:14:15.120Z,516.30
2019-06-01T07:14:50.340Z,510.00
2019-06-01T07:15:25.867Z,513.50
2019-06-01T07:16:03.772Z,521.50
2019-06-01T07:16:36.321Z,521.30
2019-06-01T07:17:11.615Z,519.30
2019-06-01T07:17:47.250Z,521.10
2019-06-01T07:18:23.543Z,524.30
2019-06-01T07:18:58.120Z,525.00
2019-06-01T07:19:33.528Z,519.20
2019-06-01T07:20:08.760Z,530.10
2019-06-01T07:20:43.890Z,528.60
2019-06-01T07:21:19.572Z,521.70